KSBY/SBY METAR and TAF weather

Enter ICAO airport designator
Station Type Date Time Source
KSBY METAR 2020/09/22 03:54 UTC NOAA

KSBY 220354Z AUTO 00000KT 10SM CLR 10/06 A3034 RMK AO2 SLP275 T01000061


Station Type Date Time Source
KSBY Decoded METAR 2020/09/22 03:54 UTC NOAA

SALISBURY-WICOMICO CTY REG, MD, United States (KSBY) 38-20N 075-30W 19M
Sep 21, 2020 - 11:54 PM EDT / 2020.09.22 0354 UTC
Wind: Calm:0
Visibility: 10 mile(s):0
Sky conditions: clear
Temperature: 50.0 F (10.0 C)
Dew Point: 43.0 F (6.1 C)
Relative Humidity: 76%
Pressure (altimeter): 30.34 in. Hg (1027 hPa)
ob: KSBY 220354Z AUTO 00000KT 10SM CLR 10/06 A3034 RMK AO2 SLP275 T01000061
cycle: 4

Station Type Date Time Source
KSBY TAF 2020/09/21 18:42 UTC NOAA

TAF KSBY 211740Z 2118/2218 04011G20KT P6SM OVC050
FM212300 02007KT P6SM SKC
FM220500 00000KT P6SM SKC
FM221700 33009KT P6SM SKC

Example: see airport list